sensor_id;sensor_type;location;lat;lon;timestamp;P1;durP1;ratioP1;P2;durP2;ratioP2
33152;SDS011;19509;43.862;26.176;2023-03-20T00:00:47;2.50;;;2.50;;
33152;SDS011;19509;43.862;26.176;2023-03-20T00:03:16;2.40;;;2.40;;
33152;SDS011;19509;43.862;26.176;2023-03-20T00:05:41;3.17;;;3.07;;
33152;SDS011;19509;43.862;26.176;2023-03-20T00:08:07;2.50;;;2.50;;
33152;SDS011;19509;43.862;26.176;2023-03-20T00:10:44;2.47;;;2.47;;
33152;SDS011;19509;43.862;26.176;2023-03-20T00:13:14;2.80;;;2.80;;
33152;SDS011;19509;43.862;26.176;2023-03-20T00:15:48;2.67;;;2.67;;
33152;SDS011;19509;43.862;26.176;2023-03-20T00:18:18;2.37;;;2.37;;
33152;SDS011;19509;43.862;26.176;2023-03-20T00:20:47;2.60;;;2.60;;
33152;SDS011;19509;43.862;26.176;2023-03-20T00:23:14;2.43;;;2.43;;
33152;SDS011;19509;43.862;26.176;2023-03-20T00:25:41;2.63;;;2.63;;
33152;SDS011;19509;43.862;26.176;2023-03-20T00:31:03;2.47;;;2.47;;
33152;SDS011;19509;43.862;26.176;2023-03-20T00:33:30;2.70;;;2.60;;
33152;SDS011;19509;43.862;26.176;2023-03-20T00:35:55;2.37;;;2.37;;
33152;SDS011;19509;43.862;26.176;2023-03-20T00:38:23;2.73;;;2.63;;
33152;SDS011;19509;43.862;26.176;2023-03-20T00:40:49;2.40;;;2.40;;
33152;SDS011;19509;43.862;26.176;2023-03-20T00:43:15;2.40;;;2.40;;
33152;SDS011;19509;43.862;26.176;2023-03-20T00:45:41;2.63;;;2.63;;
33152;SDS011;19509;43.862;26.176;2023-03-20T00:48:11;2.33;;;2.33;;
33152;SDS011;19509;43.862;26.176;2023-03-20T00:50:38;2.40;;;2.40;;
33152;SDS011;19509;43.862;26.176;2023-03-20T00:53:05;2.53;;;2.53;;
33152;SDS011;19509;43.862;26.176;2023-03-20T00:55:30;2.40;;;2.40;;
33152;SDS011;19509;43.862;26.176;2023-03-20T00:57:57;2.33;;;2.33;;
33152;SDS011;19509;43.862;26.176;2023-03-20T01:02:56;2.37;;;2.37;;
33152;SDS011;19509;43.862;26.176;2023-03-20T01:05:24;2.50;;;2.50;;
33152;SDS011;19509;43.862;26.176;2023-03-20T01:07:50;2.20;;;2.20;;
33152;SDS011;19509;43.862;26.176;2023-03-20T01:10:16;2.27;;;2.27;;
33152;SDS011;19509;43.862;26.176;2023-03-20T01:12:42;2.60;;;2.60;;
33152;SDS011;19509;43.862;26.176;2023-03-20T01:15:20;2.47;;;2.47;;
33152;SDS011;19509;43.862;26.176;2023-03-20T01:17:48;2.57;;;2.57;;
33152;SDS011;19509;43.862;26.176;2023-03-20T01:20:18;3.03;;;2.93;;
33152;SDS011;19509;43.862;26.176;2023-03-20T01:22:47;2.90;;;2.90;;
33152;SDS011;19509;43.862;26.176;2023-03-20T01:25:13;2.90;;;2.90;;
33152;SDS011;19509;43.862;26.176;2023-03-20T01:27:40;2.50;;;2.50;;
33152;SDS011;19509;43.862;26.176;2023-03-20T01:30:30;2.97;;;2.97;;
33152;SDS011;19509;43.862;26.176;2023-03-20T01:32:56;3.20;;;3.10;;
33152;SDS011;19509;43.862;26.176;2023-03-20T01:35:25;3.60;;;3.50;;
33152;SDS011;19509;43.862;26.176;2023-03-20T01:37:52;2.83;;;2.83;;
33152;SDS011;19509;43.862;26.176;2023-03-20T01:42:55;3.20;;;3.10;;
33152;SDS011;19509;43.862;26.176;2023-03-20T01:45:21;2.73;;;2.73;;
33152;SDS011;19509;43.862;26.176;2023-03-20T01:47:53;3.30;;;3.20;;
33152;SDS011;19509;43.862;26.176;2023-03-20T01:52:51;2.80;;;2.80;;
33152;SDS011;19509;43.862;26.176;2023-03-20T01:55:22;2.60;;;2.60;;
33152;SDS011;19509;43.862;26.176;2023-03-20T01:57:49;2.50;;;2.50;;
33152;SDS011;19509;43.862;26.176;2023-03-20T02:00:18;2.50;;;2.50;;
33152;SDS011;19509;43.862;26.176;2023-03-20T02:02:44;2.50;;;2.50;;
33152;SDS011;19509;43.862;26.176;2023-03-20T02:05:11;2.70;;;2.70;;
33152;SDS011;19509;43.862;26.176;2023-03-20T02:07:40;2.27;;;2.27;;
33152;SDS011;19509;43.862;26.176;2023-03-20T02:10:11;2.57;;;2.57;;
33152;SDS011;19509;43.862;26.176;2023-03-20T02:12:38;2.50;;;2.50;;
33152;SDS011;19509;43.862;26.176;2023-03-20T02:15:05;2.80;;;2.80;;
33152;SDS011;19509;43.862;26.176;2023-03-20T02:17:32;2.50;;;2.50;;
33152;SDS011;19509;43.862;26.176;2023-03-20T02:42:37;2.57;;;2.50;;
33152;SDS011;19509;43.862;26.176;2023-03-20T02:48:10;2.50;;;2.50;;
33152;SDS011;19509;43.862;26.176;2023-03-20T02:50:55;2.90;;;2.80;;
33152;SDS011;19509;43.862;26.176;2023-03-20T02:56:28;2.83;;;2.83;;
33152;SDS011;19509;43.862;26.176;2023-03-20T03:00:05;3.10;;;3.00;;
33152;SDS011;19509;43.862;26.176;2023-03-20T03:02:17;2.70;;;2.70;;
33152;SDS011;19509;43.862;26.176;2023-03-20T03:05:20;2.70;;;2.70;;
33152;SDS011;19509;43.862;26.176;2023-03-20T03:07:49;2.30;;;2.30;;
33152;SDS011;19509;43.862;26.176;2023-03-20T03:10:23;2.57;;;2.57;;
33152;SDS011;19509;43.862;26.176;2023-03-20T03:12:54;2.70;;;2.70;;
33152;SDS011;19509;43.862;26.176;2023-03-20T03:17:47;2.60;;;2.60;;
33152;SDS011;19509;43.862;26.176;2023-03-20T03:20:36;2.67;;;2.67;;
33152;SDS011;19509;43.862;26.176;2023-03-20T03:23:03;3.30;;;3.20;;
33152;SDS011;19509;43.862;26.176;2023-03-20T03:25:37;2.83;;;2.83;;
33152;SDS011;19509;43.862;26.176;2023-03-20T03:30:55;3.00;;;2.90;;
33152;SDS011;19509;43.862;26.176;2023-03-20T03:33:24;2.60;;;2.60;;
33152;SDS011;19509;43.862;26.176;2023-03-20T03:35:57;2.90;;;2.80;;
33152;SDS011;19509;43.862;26.176;2023-03-20T03:38:50;3.07;;;2.97;;
33152;SDS011;19509;43.862;26.176;2023-03-20T03:41:28;2.50;;;2.50;;
33152;SDS011;19509;43.862;26.176;2023-03-20T03:46:52;2.70;;;2.70;;
33152;SDS011;19509;43.862;26.176;2023-03-20T03:49:23;2.70;;;2.70;;
33152;SDS011;19509;43.862;26.176;2023-03-20T03:51:59;3.10;;;3.00;;
33152;SDS011;19509;43.862;26.176;2023-03-20T03:54:29;2.90;;;2.90;;
33152;SDS011;19509;43.862;26.176;2023-03-20T03:57:02;3.10;;;3.00;;
33152;SDS011;19509;43.862;26.176;2023-03-20T03:59:36;2.63;;;2.63;;
33152;SDS011;19509;43.862;26.176;2023-03-20T04:02:05;3.27;;;3.17;;
33152;SDS011;19509;43.862;26.176;2023-03-20T04:04:33;2.47;;;2.47;;
33152;SDS011;19509;43.862;26.176;2023-03-20T04:07:03;2.67;;;2.67;;
33152;SDS011;19509;43.862;26.176;2023-03-20T04:09:28;2.87;;;2.83;;
33152;SDS011;19509;43.862;26.176;2023-03-20T04:11:54;2.50;;;2.50;;
33152;SDS011;19509;43.862;26.176;2023-03-20T04:14:20;2.87;;;2.87;;
33152;SDS011;19509;43.862;26.176;2023-03-20T04:16:45;3.30;;;3.20;;
33152;SDS011;19509;43.862;26.176;2023-03-20T04:19:11;4.03;;;3.93;;
33152;SDS011;19509;43.862;26.176;2023-03-20T04:21:37;6.87;;;6.67;;
33152;SDS011;19509;43.862;26.176;2023-03-20T04:24:03;8.77;;;8.37;;
33152;SDS011;19509;43.862;26.176;2023-03-20T04:26:28;8.70;;;8.30;;
33152;SDS011;19509;43.862;26.176;2023-03-20T04:28:54;11.10;;;10.50;;
33152;SDS011;19509;43.862;26.176;2023-03-20T04:31:20;4.77;;;4.67;;
33152;SDS011;19509;43.862;26.176;2023-03-20T04:33:46;3.43;;;3.33;;
33152;SDS011;19509;43.862;26.176;2023-03-20T04:36:11;2.87;;;2.87;;
33152;SDS011;19509;43.862;26.176;2023-03-20T04:38:37;2.70;;;2.70;;
33152;SDS011;19509;43.862;26.176;2023-03-20T04:41:03;2.63;;;2.63;;
33152;SDS011;19509;43.862;26.176;2023-03-20T04:43:29;2.57;;;2.57;;
33152;SDS011;19509;43.862;26.176;2023-03-20T04:45:55;2.77;;;2.77;;
33152;SDS011;19509;43.862;26.176;2023-03-20T04:48:20;2.70;;;2.70;;
33152;SDS011;19509;43.862;26.176;2023-03-20T04:50:46;2.50;;;2.50;;
33152;SDS011;19509;43.862;26.176;2023-03-20T04:53:16;2.50;;;2.50;;
33152;SDS011;19509;43.862;26.176;2023-03-20T04:55:43;2.70;;;2.70;;
33152;SDS011;19509;43.862;26.176;2023-03-20T04:58:09;2.10;;;2.10;;
33152;SDS011;19509;43.862;26.176;2023-03-20T05:00:35;2.20;;;2.20;;
33152;SDS011;19509;43.862;26.176;2023-03-20T05:03:01;2.40;;;2.40;;
33152;SDS011;19509;43.862;26.176;2023-03-20T05:05:27;2.60;;;2.60;;
33152;SDS011;19509;43.862;26.176;2023-03-20T05:07:53;3.73;;;3.63;;
33152;SDS011;19509;43.862;26.176;2023-03-20T05:10:20;2.60;;;2.60;;
33152;SDS011;19509;43.862;26.176;2023-03-20T05:12:46;2.60;;;2.60;;
33152;SDS011;19509;43.862;26.176;2023-03-20T05:15:11;3.10;;;3.00;;
33152;SDS011;19509;43.862;26.176;2023-03-20T05:17:37;2.43;;;2.43;;
33152;SDS011;19509;43.862;26.176;2023-03-20T05:20:03;2.40;;;2.40;;
33152;SDS011;19509;43.862;26.176;2023-03-20T05:22:29;2.20;;;2.20;;
33152;SDS011;19509;43.862;26.176;2023-03-20T05:24:54;2.43;;;2.43;;
33152;SDS011;19509;43.862;26.176;2023-03-20T05:27:20;2.30;;;2.30;;
33152;SDS011;19509;43.862;26.176;2023-03-20T05:29:45;3.13;;;3.13;;
33152;SDS011;19509;43.862;26.176;2023-03-20T05:32:11;10.00;;;9.47;;
33152;SDS011;19509;43.862;26.176;2023-03-20T05:34:37;6.80;;;6.50;;
33152;SDS011;19509;43.862;26.176;2023-03-20T05:37:02;5.57;;;5.47;;
33152;SDS011;19509;43.862;26.176;2023-03-20T05:39:28;2.50;;;2.50;;
33152;SDS011;19509;43.862;26.176;2023-03-20T05:41:53;1.70;;;1.70;;
33152;SDS011;19509;43.862;26.176;2023-03-20T05:44:19;2.60;;;2.60;;
33152;SDS011;19509;43.862;26.176;2023-03-20T05:46:45;2.10;;;2.10;;
33152;SDS011;19509;43.862;26.176;2023-03-20T05:49:10;2.33;;;2.33;;
33152;SDS011;19509;43.862;26.176;2023-03-20T05:51:36;3.93;;;3.83;;
33152;SDS011;19509;43.862;26.176;2023-03-20T05:54:02;2.40;;;2.40;;
33152;SDS011;19509;43.862;26.176;2023-03-20T05:56:27;3.43;;;3.33;;
33152;SDS011;19509;43.862;26.176;2023-03-20T05:58:53;4.00;;;3.90;;
33152;SDS011;19509;43.862;26.176;2023-03-20T06:01:18;5.53;;;5.33;;
33152;SDS011;19509;43.862;26.176;2023-03-20T06:03:48;8.50;;;8.00;;
33152;SDS011;19509;43.862;26.176;2023-03-20T06:06:14;22.63;;;20.53;;
33152;SDS011;19509;43.862;26.176;2023-03-20T06:08:40;4.90;;;4.70;;
33152;SDS011;19509;43.862;26.176;2023-03-20T06:11:06;5.67;;;5.37;;
33152;SDS011;19509;43.862;26.176;2023-03-20T06:13:31;14.63;;;13.43;;
33152;SDS011;19509;43.862;26.176;2023-03-20T06:15:57;8.57;;;7.97;;
33152;SDS011;19509;43.862;26.176;2023-03-20T06:18:22;10.77;;;10.07;;
33152;SDS011;19509;43.862;26.176;2023-03-20T06:20:51;13.77;;;12.87;;
33152;SDS011;19509;43.862;26.176;2023-03-20T06:23:17;4.30;;;4.20;;
33152;SDS011;19509;43.862;26.176;2023-03-20T06:25:43;7.83;;;7.53;;
33152;SDS011;19509;43.862;26.176;2023-03-20T06:28:08;2.13;;;2.13;;
33152;SDS011;19509;43.862;26.176;2023-03-20T06:30:34;4.30;;;4.20;;
33152;SDS011;19509;43.862;26.176;2023-03-20T06:32:59;12.20;;;11.70;;
33152;SDS011;19509;43.862;26.176;2023-03-20T06:35:25;2.10;;;2.10;;
33152;SDS011;19509;43.862;26.176;2023-03-20T06:37:55;1.70;;;1.70;;
33152;SDS011;19509;43.862;26.176;2023-03-20T06:40:20;1.70;;;1.70;;
33152;SDS011;19509;43.862;26.176;2023-03-20T06:42:46;1.70;;;1.60;;
33152;SDS011;19509;43.862;26.176;2023-03-20T06:45:12;1.50;;;1.50;;
33152;SDS011;19509;43.862;26.176;2023-03-20T06:47:37;1.70;;;1.70;;
33152;SDS011;19509;43.862;26.176;2023-03-20T06:50:03;2.07;;;2.07;;
33152;SDS011;19509;43.862;26.176;2023-03-20T06:52:29;1.90;;;1.90;;
33152;SDS011;19509;43.862;26.176;2023-03-20T06:54:54;1.70;;;1.70;;
33152;SDS011;19509;43.862;26.176;2023-03-20T06:57:20;1.50;;;1.50;;
33152;SDS011;19509;43.862;26.176;2023-03-20T06:59:46;1.60;;;1.60;;
33152;SDS011;19509;43.862;26.176;2023-03-20T07:02:11;1.67;;;1.67;;
33152;SDS011;19509;43.862;26.176;2023-03-20T07:04:37;1.70;;;1.70;;
33152;SDS011;19509;43.862;26.176;2023-03-20T07:07:03;1.50;;;1.50;;
33152;SDS011;19509;43.862;26.176;2023-03-20T07:09:28;1.10;;;1.10;;
33152;SDS011;19509;43.862;26.176;2023-03-20T07:11:54;1.60;;;1.60;;
33152;SDS011;19509;43.862;26.176;2023-03-20T07:14:20;1.40;;;1.40;;
33152;SDS011;19509;43.862;26.176;2023-03-20T07:16:46;1.40;;;1.40;;
33152;SDS011;19509;43.862;26.176;2023-03-20T07:19:12;1.50;;;1.50;;
33152;SDS011;19509;43.862;26.176;2023-03-20T07:21:38;1.50;;;1.40;;
33152;SDS011;19509;43.862;26.176;2023-03-20T07:24:04;1.73;;;1.73;;
33152;SDS011;19509;43.862;26.176;2023-03-20T07:26:31;1.53;;;1.53;;
33152;SDS011;19509;43.862;26.176;2023-03-20T07:28:56;1.43;;;1.43;;
33152;SDS011;19509;43.862;26.176;2023-03-20T07:31:23;1.47;;;1.47;;
33152;SDS011;19509;43.862;26.176;2023-03-20T07:33:50;1.30;;;1.30;;
33152;SDS011;19509;43.862;26.176;2023-03-20T07:36:15;1.50;;;1.50;;
33152;SDS011;19509;43.862;26.176;2023-03-20T07:38:41;1.50;;;1.50;;
33152;SDS011;19509;43.862;26.176;2023-03-20T07:41:06;2.00;;;2.00;;
33152;SDS011;19509;43.862;26.176;2023-03-20T07:43:32;1.83;;;1.83;;
33152;SDS011;19509;43.862;26.176;2023-03-20T07:46:00;1.70;;;1.70;;
33152;SDS011;19509;43.862;26.176;2023-03-20T07:48:27;1.70;;;1.70;;
33152;SDS011;19509;43.862;26.176;2023-03-20T07:50:53;1.70;;;1.60;;
33152;SDS011;19509;43.862;26.176;2023-03-20T07:53:18;1.40;;;1.40;;
33152;SDS011;19509;43.862;26.176;2023-03-20T07:55:43;1.40;;;1.40;;
33152;SDS011;19509;43.862;26.176;2023-03-20T07:58:09;1.37;;;1.37;;
33152;SDS011;19509;43.862;26.176;2023-03-20T08:00:35;1.40;;;1.40;;
33152;SDS011;19509;43.862;26.176;2023-03-20T08:03:00;1.50;;;1.50;;
33152;SDS011;19509;43.862;26.176;2023-03-20T08:05:26;1.50;;;1.40;;
33152;SDS011;19509;43.862;26.176;2023-03-20T08:07:51;1.30;;;1.30;;
33152;SDS011;19509;43.862;26.176;2023-03-20T08:10:17;1.50;;;1.50;;
33152;SDS011;19509;43.862;26.176;2023-03-20T08:12:42;1.70;;;1.70;;
33152;SDS011;19509;43.862;26.176;2023-03-20T08:15:08;1.40;;;1.40;;
33152;SDS011;19509;43.862;26.176;2023-03-20T08:17:34;1.40;;;1.40;;
33152;SDS011;19509;43.862;26.176;2023-03-20T08:19:59;1.47;;;1.47;;
33152;SDS011;19509;43.862;26.176;2023-03-20T08:22:25;1.50;;;1.50;;
33152;SDS011;19509;43.862;26.176;2023-03-20T08:24:50;1.83;;;1.73;;
33152;SDS011;19509;43.862;26.176;2023-03-20T08:27:16;1.67;;;1.67;;
33152;SDS011;19509;43.862;26.176;2023-03-20T08:29:41;1.80;;;1.80;;
33152;SDS011;19509;43.862;26.176;2023-03-20T08:32:06;1.70;;;1.60;;
33152;SDS011;19509;43.862;26.176;2023-03-20T08:34:32;1.50;;;1.50;;
33152;SDS011;19509;43.862;26.176;2023-03-20T08:36:58;1.60;;;1.60;;
33152;SDS011;19509;43.862;26.176;2023-03-20T08:39:23;1.70;;;1.70;;
33152;SDS011;19509;43.862;26.176;2023-03-20T08:41:49;1.90;;;1.90;;
33152;SDS011;19509;43.862;26.176;2023-03-20T08:44:14;1.80;;;1.80;;
33152;SDS011;19509;43.862;26.176;2023-03-20T08:46:40;1.63;;;1.63;;
33152;SDS011;19509;43.862;26.176;2023-03-20T08:49:07;1.70;;;1.70;;
33152;SDS011;19509;43.862;26.176;2023-03-20T08:51:33;1.70;;;1.70;;
33152;SDS011;19509;43.862;26.176;2023-03-20T08:53:58;1.60;;;1.60;;
33152;SDS011;19509;43.862;26.176;2023-03-20T08:56:24;1.70;;;1.70;;
33152;SDS011;19509;43.862;26.176;2023-03-20T08:58:49;1.70;;;1.70;;
33152;SDS011;19509;43.862;26.176;2023-03-20T09:01:17;1.63;;;1.63;;
33152;SDS011;19509;43.862;26.176;2023-03-20T09:03:43;1.43;;;1.43;;
33152;SDS011;19509;43.862;26.176;2023-03-20T09:06:09;1.77;;;1.77;;
33152;SDS011;19509;43.862;26.176;2023-03-20T09:08:35;1.80;;;1.80;;
33152;SDS011;19509;43.862;26.176;2023-03-20T09:11:01;1.80;;;1.80;;
33152;SDS011;19509;43.862;26.176;2023-03-20T09:13:28;1.70;;;1.70;;
33152;SDS011;19509;43.862;26.176;2023-03-20T09:15:53;1.50;;;1.50;;
33152;SDS011;19509;43.862;26.176;2023-03-20T09:18:20;1.80;;;1.80;;
33152;SDS011;19509;43.862;26.176;2023-03-20T09:20:46;1.70;;;1.70;;
33152;SDS011;19509;43.862;26.176;2023-03-20T09:23:13;4.10;;;1.70;;
33152;SDS011;19509;43.862;26.176;2023-03-20T09:25:38;1.70;;;1.70;;
33152;SDS011;19509;43.862;26.176;2023-03-20T09:28:03;1.57;;;1.57;;
33152;SDS011;19509;43.862;26.176;2023-03-20T09:30:29;1.67;;;1.67;;
33152;SDS011;19509;43.862;26.176;2023-03-20T09:32:54;1.47;;;1.47;;
33152;SDS011;19509;43.862;26.176;2023-03-20T09:35:20;1.73;;;1.70;;
33152;SDS011;19509;43.862;26.176;2023-03-20T09:37:46;1.70;;;1.70;;
33152;SDS011;19509;43.862;26.176;2023-03-20T09:40:28;1.60;;;1.60;;
33152;SDS011;19509;43.862;26.176;2023-03-20T09:43:12;1.50;;;1.50;;
33152;SDS011;19509;43.862;26.176;2023-03-20T09:46:11;1.70;;;1.70;;
33152;SDS011;19509;43.862;26.176;2023-03-20T09:48:53;1.60;;;1.60;;
33152;SDS011;19509;43.862;26.176;2023-03-20T09:51:37;2.97;;;1.73;;
33152;SDS011;19509;43.862;26.176;2023-03-20T09:57:00;1.80;;;1.80;;
33152;SDS011;19509;43.862;26.176;2023-03-20T09:59:27;1.47;;;1.47;;
33152;SDS011;19509;43.862;26.176;2023-03-20T10:02:05;1.40;;;1.40;;
33152;SDS011;19509;43.862;26.176;2023-03-20T10:04:39;1.50;;;1.50;;
33152;SDS011;19509;43.862;26.176;2023-03-20T10:07:08;1.50;;;1.50;;
33152;SDS011;19509;43.862;26.176;2023-03-20T10:09:36;1.60;;;1.60;;
33152;SDS011;19509;43.862;26.176;2023-03-20T10:12:19;1.20;;;1.20;;
33152;SDS011;19509;43.862;26.176;2023-03-20T10:15:09;1.50;;;1.50;;
33152;SDS011;19509;43.862;26.176;2023-03-20T10:20:41;1.50;;;1.50;;
33152;SDS011;19509;43.862;26.176;2023-03-20T10:25:49;1.70;;;1.70;;
33152;SDS011;19509;43.862;26.176;2023-03-20T10:28:22;1.43;;;1.43;;
33152;SDS011;19509;43.862;26.176;2023-03-20T10:31:12;1.20;;;1.20;;
33152;SDS011;19509;43.862;26.176;2023-03-20T10:39:35;1.00;;;1.00;;
33152;SDS011;19509;43.862;26.176;2023-03-20T10:42:18;1.20;;;1.20;;
33152;SDS011;19509;43.862;26.176;2023-03-20T10:44:59;1.30;;;1.30;;
33152;SDS011;19509;43.862;26.176;2023-03-20T10:47:30;1.20;;;1.20;;
33152;SDS011;19509;43.862;26.176;2023-03-20T10:50:00;1.20;;;1.20;;
33152;SDS011;19509;43.862;26.176;2023-03-20T10:52:31;1.17;;;1.17;;
33152;SDS011;19509;43.862;26.176;2023-03-20T10:55:05;1.10;;;1.10;;
33152;SDS011;19509;43.862;26.176;2023-03-20T10:57:37;1.03;;;1.03;;
33152;SDS011;19509;43.862;26.176;2023-03-20T11:00:06;1.13;;;1.13;;
33152;SDS011;19509;43.862;26.176;2023-03-20T11:02:43;1.00;;;1.00;;
33152;SDS011;19509;43.862;26.176;2023-03-20T11:05:27;0.90;;;0.90;;
33152;SDS011;19509;43.862;26.176;2023-03-20T11:08:05;0.90;;;0.90;;
33152;SDS011;19509;43.862;26.176;2023-03-20T11:10:36;1.20;;;1.20;;
33152;SDS011;19509;43.862;26.176;2023-03-20T11:13:14;1.20;;;1.20;;
33152;SDS011;19509;43.862;26.176;2023-03-20T11:15:47;1.50;;;1.50;;
33152;SDS011;19509;43.862;26.176;2023-03-20T11:18:12;1.30;;;1.30;;
33152;SDS011;19509;43.862;26.176;2023-03-20T11:20:48;1.40;;;1.30;;
33152;SDS011;19509;43.862;26.176;2023-03-20T11:23:16;1.20;;;1.20;;
33152;SDS011;19509;43.862;26.176;2023-03-20T11:29:25;1.27;;;1.27;;
33152;SDS011;19509;43.862;26.176;2023-03-20T11:36:34;1.27;;;1.27;;
33152;SDS011;19509;43.862;26.176;2023-03-20T11:39:06;1.10;;;1.10;;
33152;SDS011;19509;43.862;26.176;2023-03-20T11:41:41;1.30;;;1.30;;
33152;SDS011;19509;43.862;26.176;2023-03-20T11:44:22;1.30;;;1.30;;
33152;SDS011;19509;43.862;26.176;2023-03-20T11:46:57;1.37;;;1.27;;
33152;SDS011;19509;43.862;26.176;2023-03-20T11:49:48;1.30;;;1.20;;
33152;SDS011;19509;43.862;26.176;2023-03-20T11:52:20;1.00;;;1.00;;
33152;SDS011;19509;43.862;26.176;2023-03-20T11:54:58;1.23;;;1.23;;
33152;SDS011;19509;43.862;26.176;2023-03-20T12:00:01;1.00;;;1.00;;
33152;SDS011;19509;43.862;26.176;2023-03-20T12:02:32;1.20;;;1.20;;
33152;SDS011;19509;43.862;26.176;2023-03-20T12:04:59;0.90;;;0.90;;
33152;SDS011;19509;43.862;26.176;2023-03-20T12:07:28;0.73;;;0.73;;
33152;SDS011;19509;43.862;26.176;2023-03-20T12:18:14;0.90;;;0.90;;
33152;SDS011;19509;43.862;26.176;2023-03-20T12:26:32;0.87;;;0.87;;
33152;SDS011;19509;43.862;26.176;2023-03-20T12:31:51;0.73;;;0.73;;
33152;SDS011;19509;43.862;26.176;2023-03-20T12:36:56;0.97;;;0.97;;
33152;SDS011;19509;43.862;26.176;2023-03-20T12:39:31;0.87;;;0.87;;
33152;SDS011;19509;43.862;26.176;2023-03-20T12:56:12;1.10;;;1.10;;
33152;SDS011;19509;43.862;26.176;2023-03-20T13:01:21;1.10;;;1.10;;
33152;SDS011;19509;43.862;26.176;2023-03-20T13:12:14;0.80;;;0.80;;
33152;SDS011;19509;43.862;26.176;2023-03-20T13:18:02;0.93;;;0.93;;
33152;SDS011;19509;43.862;26.176;2023-03-20T13:20:33;1.00;;;1.00;;
33152;SDS011;19509;43.862;26.176;2023-03-20T13:25:37;0.80;;;0.80;;
33152;SDS011;19509;43.862;26.176;2023-03-20T13:28:37;0.90;;;0.90;;
33152;SDS011;19509;43.862;26.176;2023-03-20T13:31:26;1.00;;;1.00;;
33152;SDS011;19509;43.862;26.176;2023-03-20T13:39:13;0.80;;;0.80;;
33152;SDS011;19509;43.862;26.176;2023-03-20T13:41:51;0.90;;;0.90;;
33152;SDS011;19509;43.862;26.176;2023-03-20T13:44:18;1.10;;;1.10;;
33152;SDS011;19509;43.862;26.176;2023-03-20T13:46:57;1.47;;;1.00;;
33152;SDS011;19509;43.862;26.176;2023-03-20T13:51:59;1.00;;;1.00;;
33152;SDS011;19509;43.862;26.176;2023-03-20T13:54:45;1.00;;;1.00;;
33152;SDS011;19509;43.862;26.176;2023-03-20T13:57:26;1.30;;;1.20;;
33152;SDS011;19509;43.862;26.176;2023-03-20T14:00:04;1.03;;;1.03;;
33152;SDS011;19509;43.862;26.176;2023-03-20T14:05:18;0.83;;;0.83;;
33152;SDS011;19509;43.862;26.176;2023-03-20T14:07:47;1.00;;;1.00;;
33152;SDS011;19509;43.862;26.176;2023-03-20T14:12:59;1.10;;;1.10;;
33152;SDS011;19509;43.862;26.176;2023-03-20T14:15:32;0.90;;;0.90;;
33152;SDS011;19509;43.862;26.176;2023-03-20T14:18:04;0.80;;;0.80;;
33152;SDS011;19509;43.862;26.176;2023-03-20T14:20:33;0.90;;;0.90;;
33152;SDS011;19509;43.862;26.176;2023-03-20T14:23:01;0.90;;;0.90;;
33152;SDS011;19509;43.862;26.176;2023-03-20T14:25:32;0.97;;;0.97;;
33152;SDS011;19509;43.862;26.176;2023-03-20T14:33:09;1.00;;;1.00;;
33152;SDS011;19509;43.862;26.176;2023-03-20T14:38:47;1.03;;;1.03;;
33152;SDS011;19509;43.862;26.176;2023-03-20T14:50:29;0.93;;;0.93;;
33152;SDS011;19509;43.862;26.176;2023-03-20T14:57:50;1.10;;;1.10;;
33152;SDS011;19509;43.862;26.176;2023-03-20T15:00:20;1.00;;;1.00;;
33152;SDS011;19509;43.862;26.176;2023-03-20T15:02:49;0.90;;;0.90;;
33152;SDS011;19509;43.862;26.176;2023-03-20T15:05:21;0.90;;;0.90;;
33152;SDS011;19509;43.862;26.176;2023-03-20T15:07:49;0.90;;;0.90;;
33152;SDS011;19509;43.862;26.176;2023-03-20T15:10:16;1.00;;;1.00;;
33152;SDS011;19509;43.862;26.176;2023-03-20T15:12:42;0.87;;;0.87;;
33152;SDS011;19509;43.862;26.176;2023-03-20T15:15:22;0.90;;;0.90;;
33152;SDS011;19509;43.862;26.176;2023-03-20T15:18:11;1.00;;;1.00;;
33152;SDS011;19509;43.862;26.176;2023-03-20T15:20:38;0.80;;;0.80;;
33152;SDS011;19509;43.862;26.176;2023-03-20T15:23:04;0.93;;;0.93;;
33152;SDS011;19509;43.862;26.176;2023-03-20T15:28:30;0.93;;;0.93;;
33152;SDS011;19509;43.862;26.176;2023-03-20T15:30:57;1.00;;;1.00;;
33152;SDS011;19509;43.862;26.176;2023-03-20T15:33:25;1.00;;;1.00;;
33152;SDS011;19509;43.862;26.176;2023-03-20T15:36:05;2.97;;;1.00;;
33152;SDS011;19509;43.862;26.176;2023-03-20T15:38:35;0.90;;;0.90;;
33152;SDS011;19509;43.862;26.176;2023-03-20T15:41:05;1.00;;;1.00;;
33152;SDS011;19509;43.862;26.176;2023-03-20T15:43:32;0.90;;;0.90;;
33152;SDS011;19509;43.862;26.176;2023-03-20T15:46:03;0.90;;;0.90;;
33152;SDS011;19509;43.862;26.176;2023-03-20T15:48:28;1.00;;;1.00;;
33152;SDS011;19509;43.862;26.176;2023-03-20T15:50:55;1.00;;;1.00;;
33152;SDS011;19509;43.862;26.176;2023-03-20T15:53:33;1.00;;;1.00;;
33152;SDS011;19509;43.862;26.176;2023-03-20T15:56:09;1.00;;;1.00;;
33152;SDS011;19509;43.862;26.176;2023-03-20T15:58:37;1.20;;;1.20;;
33152;SDS011;19509;43.862;26.176;2023-03-20T16:01:04;1.10;;;1.10;;
33152;SDS011;19509;43.862;26.176;2023-03-20T16:03:32;1.30;;;1.30;;
33152;SDS011;19509;43.862;26.176;2023-03-20T16:06:02;1.20;;;1.10;;
33152;SDS011;19509;43.862;26.176;2023-03-20T16:08:32;1.10;;;1.10;;
33152;SDS011;19509;43.862;26.176;2023-03-20T16:10:59;1.07;;;1.07;;
33152;SDS011;19509;43.862;26.176;2023-03-20T16:13:28;1.20;;;1.20;;
33152;SDS011;19509;43.862;26.176;2023-03-20T16:16:00;1.07;;;1.07;;
33152;SDS011;19509;43.862;26.176;2023-03-20T16:18:27;1.37;;;1.27;;
33152;SDS011;19509;43.862;26.176;2023-03-20T16:20:58;1.67;;;1.67;;
33152;SDS011;19509;43.862;26.176;2023-03-20T16:23:36;2.97;;;2.87;;
33152;SDS011;19509;43.862;26.176;2023-03-20T16:26:05;2.00;;;2.00;;
33152;SDS011;19509;43.862;26.176;2023-03-20T16:28:36;1.40;;;1.40;;
33152;SDS011;19509;43.862;26.176;2023-03-20T16:31:11;1.50;;;1.50;;
33152;SDS011;19509;43.862;26.176;2023-03-20T16:33:40;1.30;;;1.30;;
33152;SDS011;19509;43.862;26.176;2023-03-20T16:36:06;1.70;;;1.60;;
33152;SDS011;19509;43.862;26.176;2023-03-20T16:38:33;1.60;;;1.50;;
33152;SDS011;19509;43.862;26.176;2023-03-20T16:43:54;1.80;;;1.80;;
33152;SDS011;19509;43.862;26.176;2023-03-20T16:46:21;1.90;;;1.90;;
33152;SDS011;19509;43.862;26.176;2023-03-20T16:48:50;1.83;;;1.77;;
33152;SDS011;19509;43.862;26.176;2023-03-20T16:51:27;1.70;;;1.70;;
33152;SDS011;19509;43.862;26.176;2023-03-20T16:53:55;1.30;;;1.30;;
33152;SDS011;19509;43.862;26.176;2023-03-20T16:56:33;1.40;;;1.40;;
33152;SDS011;19509;43.862;26.176;2023-03-20T16:59:08;1.37;;;1.37;;
33152;SDS011;19509;43.862;26.176;2023-03-20T17:01:36;1.60;;;1.60;;
33152;SDS011;19509;43.862;26.176;2023-03-20T17:04:16;1.80;;;1.80;;
33152;SDS011;19509;43.862;26.176;2023-03-20T17:06:48;1.70;;;1.70;;
33152;SDS011;19509;43.862;26.176;2023-03-20T17:11:48;1.87;;;1.80;;
33152;SDS011;19509;43.862;26.176;2023-03-20T17:14:15;1.43;;;1.43;;
33152;SDS011;19509;43.862;26.176;2023-03-20T17:16:41;1.60;;;1.50;;
33152;SDS011;19509;43.862;26.176;2023-03-20T17:19:15;1.50;;;1.50;;
33152;SDS011;19509;43.862;26.176;2023-03-20T17:21:44;1.93;;;1.70;;
33152;SDS011;19509;43.862;26.176;2023-03-20T17:24:11;2.07;;;2.07;;
33152;SDS011;19509;43.862;26.176;2023-03-20T17:26:38;2.20;;;2.20;;
33152;SDS011;19509;43.862;26.176;2023-03-20T17:29:06;2.40;;;2.30;;
33152;SDS011;19509;43.862;26.176;2023-03-20T17:31:32;2.40;;;2.30;;
33152;SDS011;19509;43.862;26.176;2023-03-20T17:33:57;2.10;;;2.10;;